Port Lions, AK (99550)

6:13 PM AKST on February 13, 2016 (GMT -0900)
Kodiak | | Change Station
CLOSE
Current Station
Airport
Location: Kodiak,
Elevation: 112 ft
Nearby Weather Stations

Elev 112 ft 57.75 °N, 152.49 °W | Updated 20 minutes ago

Rain
Rain Mist
37 °F
Feels Like 26 °F
N
22
Wind Variable Wind from NE

Today
High -- | Low -- °F
--% Chance of Precip.
Yesterday
High -- | Low -- °F
Precip. -- in
Pressure 29.14 in
Visibility 3.0 miles
Clouds Mostly Cloudy 1200 ft
Mostly Cloudy 1800 ft
Overcast 2600 ft
Windchill 26 °F
Dew Point 37 °F
Humidity 100%
Rainfall 0.37 in
Snow Depth Not available.
8:48 AM 6:05 PM
Waxing Crescent, 37% visible
METAR PADQ 140253Z AUTO 04019KT 3SM RA BR BKN012 BKN018 OVC026 03/03 A2914 RMK AO2 SLP868 P0004 60010 T00280028 56019 TSNO $
Pressure 29.14 in
Visibility 3.0 miles
Clouds Mostly Cloudy 1200 ft
Mostly Cloudy 1800 ft
Overcast 2600 ft
Windchill 26 °F
Dew Point 37 °F
Humidity 100%
Rainfall 0.37 in
Snow Depth Not available.
8:48 AM 6:05 PM
Waxing Crescent, 37% visible
METAR PADQ 140253Z AUTO 04019KT 3SM RA BR BKN012 BKN018 OVC026 03/03 A2914 RMK AO2 SLP868 P0004 60010 T00280028 56019 TSNO $

10-Day Weather Forecast

Almanac

Astronomy

Feb. 13, 2016 Rise Set
Actual Time
Civil Twilight
Nautical Twilight
Astronomical Twilight
Moon
Length of Visible Light
Length of Day
Tomorrow will be .
, % of the Moon is Illuminated

Today's Extremes

State Highs State Lows

Community

WunderPhotos

Upload Photos

1,892,733 photos uploaded!

WunderBlog® & News

Nearby

Air Quality

  Air Quality AQ Index Pollutant
Not available.

Snow Depth

Station Depth Elevation

Earthquake Activity

City Distance Mag. Time & Date
Minimum magnitude displayed is 2.5.

Coastal Water Temperatures

Place Temperature

Stations

Nearby Weather Stations

Station Location Temp. Windchill Dew Point Humidity Wind Precip. Elev Updated Type
                   

Watches & Warnings

There are currently no watches in effect.